Decoded Metar for UDSG (SHIRAK in ARMENIA) (IATA:N/A) | Meteo·Mobile Aviation Weather
aviador You're here:

UDSG Decoded Metar

SHIRAK in ARMENIA
Report Time2018-09-19 22:00:00
UTC Time2018-09-19 22:33:34
Flight Rules vfr VFR
Wind280° at 02 kt
W.Decomp.*RWY 20: 0.5 kt HW 1.9 kt RCW
W.Rank280° ranks 20
Current wind is below 280° avg. (6.2)
Visibility9000 m
Phenomena:N/A
Clouds:N/A
Expected CloudBase > 2,400 ft AGL from Temp-Dew spread
CeilingNone
Temp11°C (ISA +6)
Dew Point05°C (67% RH)
AAT9.2°C
QNH1022 hPa
Density Alt5,525 ft
Elevation5,000 ft
Report Wrong Elevation
Raw Report
METAR UDSG 192200Z 28002KT 9000 NSC 11/05 Q1022 R02/CLRD70 NOSIG=

Extra information for UDSG:More info

Metar Taf Metar & Taf Last 4 Metars F.Rules Stats Wind Profile Meteogram Temp Stats Airport Information Weather charts Add Link Nearby VenuesMetar ALERT Operation Metar Decoded Social comments